Bradenton Beach, FL (34217)

10:01 AM EDT on October 02, 2014 (GMT -0400)
Holiday Cove | Change Station
CLOSE
Current Station
Personal Weather Station
Location: Cortez, FL
Elevation: 14 ft
Nearby Weather Stations

Elev 14 ft 27.47 °N, 82.68 °W | Updated 58 seconds ago

Partly Cloudy
Partly Cloudy
81.9 °F
Feels Like 91 °F
N
1.0
Wind Variable Wind from ENE
Gusts 4.0 mph

Today
High -- | Low -- °F
--% Chance of Precip.
Yesterday
High -- | Low -- °F
Precip. -- in
7:24 AM 7:15 PM
First Quarter, 59% visible
Pressure 30.04 in
Visibility 10.0 miles
Clouds Scattered Clouds 700 ft
Heat Index 91 °F
Dew Point 79 °F
Humidity 90%
Rainfall 0.00 in
Snow Depth Not available.
UV 3 out of 12
Pollen 5.90 out of 12
Air Quality Not available.
Flu Activity Not available.
METAR KSRQ 021353Z 08005KT 10SM SCT007 27/24 A3004 RMK AO2 SLP170 T02670244

More Conditions Fewer Conditions

Pressure 30.04 in
Visibility 10.0 miles
Clouds Scattered Clouds 700 ft
Heat Index 91 °F
Dew Point 79 °F
Humidity 90%
Rainfall 0.00 in
Snow Depth Not available.
UV 3 out of 12
Pollen 5.90 out of 12
Air Quality Not available.
Flu Activity Not available.
METAR KSRQ 021353Z 08005KT 10SM SCT007 27/24 A3004 RMK AO2 SLP170 T02670244

More Conditions Fewer Conditions

10-Day Weather Forecast

Almanac

Astronomy

Oct. 02, 2014 Rise Set
Actual Time 7:24 AM EDT 7:15 PM EDT
Civil Twilight 7:00 AM EDT 7:39 PM EDT
Nautical Twilight 6:33 AM EDT 8:06 PM EDT
Astronomical Twilight 6:06 AM EDT 8:33 PM EDT
Moon 2:54 PM EDT 1:08 AM EDT
Length of Visible Light 12h 38m
Length of Day
11h 51m
Tomorrow will be 1m 37s shorter.
First Quarter, 59% of the Moon is Illuminated
Today
First Quarter
Oct 8
Full
Oct 15
Last Quarter
Oct 23
New
Oct 30
First Quarter

Today's Extremes

State Highs State Lows

Community

WunderPhotos

Upload Photos

1,758,247 photos uploaded!

WunderBlogs® & News

Nearby

Snow Depth

Station Depth Elevation
No new snow has been reported.

Earthquake Activity

City Distance Mag. Time & Date
No recent earthquake activity has been reported nearby.
Minimum magnitude displayed is 2.5.

Coastal Water Temperatures

Place Temperature
Clearwater Beach, FL 82.9 °F
Port Manatee, FL 84.0 °F
St Petersburg, FL 84.9 °F
Old Port Tampa, FL 82.9 °F
McKay Bay Entrance, FL 84.0 °F

Nearby Weather Stations